createdAt,value
2023-09-08T00:02:11.287Z,17.30
2023-09-08T00:04:39.493Z,17.30
2023-09-08T00:07:07.773Z,17.20
2023-09-08T00:09:35.982Z,17.50
2023-09-08T00:12:04.159Z,17.20
2023-09-08T00:14:33.583Z,17.00
2023-09-08T00:17:01.725Z,16.80
2023-09-08T00:19:29.836Z,16.80
2023-09-08T00:21:59.582Z,16.70
2023-09-08T00:24:27.685Z,16.50
2023-09-08T00:26:55.860Z,16.50
2023-09-08T00:29:23.995Z,16.40
2023-09-08T00:31:53.459Z,16.40
2023-09-08T00:34:21.594Z,16.40
2023-09-08T00:36:49.753Z,16.40
2023-09-08T00:39:17.960Z,16.40
2023-09-08T00:41:45.140Z,16.50
2023-09-08T00:44:13.327Z,16.50
2023-09-08T00:46:41.875Z,16.60
2023-09-08T00:49:12.494Z,16.60
2023-09-08T00:51:40.657Z,16.60
2023-09-08T00:54:08.913Z,16.50
2023-09-08T00:56:39.268Z,16.40
2023-09-08T00:59:08.883Z,16.40
2023-09-08T01:01:37.068Z,16.60
2023-09-08T01:04:05.525Z,16.60
2023-09-08T01:06:35.645Z,16.30
2023-09-08T01:09:04.428Z,16.20
2023-09-08T01:11:33.320Z,16.20
2023-09-08T01:14:01.584Z,16.20
2023-09-08T01:16:29.961Z,16.20
2023-09-08T01:19:00.112Z,16.20
2023-09-08T01:21:55.941Z,16.10
2023-09-08T01:24:50.071Z,16.10
2023-09-08T01:27:23.574Z,16.10
2023-09-08T01:29:52.916Z,16.10
2023-09-08T01:32:21.979Z,16.10
2023-09-08T01:34:50.468Z,16.10
2023-09-08T01:37:18.547Z,16.20
2023-09-08T01:39:46.556Z,16.20
2023-09-08T01:42:14.627Z,16.10
2023-09-08T01:44:44.071Z,16.10
2023-09-08T01:47:12.151Z,16.00
2023-09-08T01:49:40.292Z,16.00
2023-09-08T01:52:08.334Z,16.00
2023-09-08T01:54:36.529Z,15.90
2023-09-08T01:57:04.817Z,16.00
2023-09-08T01:59:32.920Z,16.00
2023-09-08T02:02:02.689Z,16.00
2023-09-08T02:04:30.940Z,16.00
2023-09-08T02:06:59.489Z,16.00
2023-09-08T02:09:33.226Z,15.90
2023-09-08T02:12:01.420Z,15.80
2023-09-08T02:14:29.759Z,15.80
2023-09-08T02:16:58.250Z,15.80
2023-09-08T02:19:27.773Z,15.70
2023-09-08T02:21:56.044Z,15.70
2023-09-08T02:24:24.255Z,15.70
2023-09-08T02:26:52.787Z,15.60
2023-09-08T02:29:20.822Z,15.60
2023-09-08T02:31:48.885Z,15.60
2023-09-08T02:34:17.429Z,15.50
2023-09-08T02:36:48.718Z,15.60
2023-09-08T02:39:17.203Z,15.70
2023-09-08T02:41:45.302Z,16.00
2023-09-08T02:44:13.339Z,16.00
2023-09-08T02:46:41.456Z,15.90
2023-09-08T02:49:09.699Z,15.80
2023-09-08T02:51:37.848Z,15.70
2023-09-08T02:54:07.970Z,15.60
2023-09-08T02:56:36.555Z,15.60
2023-09-08T02:59:04.721Z,15.50
2023-09-08T03:01:33.283Z,15.50
2023-09-08T03:04:01.727Z,15.40
2023-09-08T03:06:29.866Z,15.30
2023-09-08T03:08:58.006Z,15.30
2023-09-08T03:11:27.402Z,15.30
2023-09-08T03:13:55.567Z,15.40
2023-09-08T03:16:23.715Z,15.40
2023-09-08T03:18:51.944Z,15.50
2023-09-08T03:21:20.029Z,15.50
2023-09-08T03:23:48.419Z,15.50
2023-09-08T03:26:16.532Z,15.50
2023-09-08T03:28:45.943Z,15.60
2023-09-08T03:31:14.056Z,15.50
2023-09-08T03:33:43.508Z,15.40
2023-09-08T03:36:11.885Z,15.40
2023-09-08T03:38:40.579Z,15.30
2023-09-08T03:41:09.444Z,15.30
2023-09-08T03:43:37.639Z,15.20
2023-09-08T03:46:07.383Z,15.10
2023-09-08T03:48:35.561Z,15.10
2023-09-08T03:51:03.794Z,15.10
2023-09-08T03:53:33.365Z,15.10
2023-09-08T03:56:05.591Z,15.20
2023-09-08T03:58:33.721Z,15.20
2023-09-08T04:01:01.989Z,15.20
2023-09-08T04:03:31.479Z,15.20
2023-09-08T04:06:00.277Z,15.10
2023-09-08T04:08:28.362Z,15.10
2023-09-08T04:10:56.442Z,15.00
2023-09-08T04:13:24.634Z,14.90
2023-09-08T04:15:52.837Z,14.90
2023-09-08T04:18:21.115Z,14.90
2023-09-08T04:20:50.644Z,15.00
2023-09-08T04:23:18.796Z,15.00
2023-09-08T04:25:47.853Z,15.00
2023-09-08T04:28:15.950Z,15.00
2023-09-08T04:30:44.106Z,15.00
2023-09-08T04:33:12.318Z,15.00
2023-09-08T04:35:40.607Z,15.10
2023-09-08T04:38:10.439Z,15.10
2023-09-08T04:40:38.487Z,14.90
2023-09-08T04:43:06.708Z,15.10
2023-09-08T04:45:37.092Z,14.90
2023-09-08T04:48:06.210Z,14.90
2023-09-08T04:50:34.656Z,14.90
2023-09-08T04:53:02.760Z,14.90
2023-09-08T04:55:37.618Z,14.90
2023-09-08T04:58:05.991Z,15.00
2023-09-08T05:00:36.745Z,15.00
2023-09-08T05:03:05.258Z,15.00
2023-09-08T05:05:33.434Z,15.00
2023-09-08T05:08:01.498Z,15.10
2023-09-08T05:10:29.644Z,15.10
2023-09-08T05:12:59.057Z,15.10
2023-09-08T05:15:27.190Z,15.10
2023-09-08T05:17:55.410Z,15.10
2023-09-08T05:20:23.503Z,15.10
2023-09-08T05:22:51.635Z,15.10
2023-09-08T05:25:19.811Z,15.10
2023-09-08T05:27:48.023Z,15.20
2023-09-08T05:30:17.755Z,15.20
2023-09-08T05:32:45.979Z,15.30
2023-09-08T05:35:14.169Z,15.40
2023-09-08T05:37:42.299Z,15.50
2023-09-08T05:40:10.987Z,15.60
2023-09-08T05:42:39.072Z,15.60
2023-09-08T05:45:08.336Z,15.70
2023-09-08T05:47:38.057Z,15.80
2023-09-08T05:50:07.011Z,15.90
2023-09-08T05:52:35.298Z,16.00
2023-09-08T05:55:04.229Z,16.10
2023-09-08T05:57:32.554Z,16.20
2023-09-08T06:00:00.700Z,16.30
2023-09-08T06:02:28.988Z,16.40
2023-09-08T06:04:58.520Z,16.50
2023-09-08T06:07:26.645Z,16.60
2023-09-08T06:09:54.803Z,16.80
2023-09-08T06:12:22.988Z,16.90
2023-09-08T06:14:51.206Z,17.10
2023-09-08T06:17:19.415Z,17.30
2023-09-08T06:19:47.597Z,17.40
2023-09-08T06:22:17.093Z,17.40
2023-09-08T06:24:45.213Z,17.50
2023-09-08T06:27:14.217Z,17.70
2023-09-08T06:29:44.526Z,17.70
2023-09-08T06:32:12.959Z,17.70
2023-09-08T06:34:41.105Z,17.80
2023-09-08T06:37:09.608Z,17.90
2023-09-08T06:39:39.131Z,18.10
2023-09-08T06:42:07.390Z,18.20
2023-09-08T06:44:35.503Z,18.20
2023-09-08T06:47:04.440Z,18.20
2023-09-08T06:49:32.572Z,18.30
2023-09-08T06:52:00.723Z,18.30
2023-09-08T06:54:28.879Z,18.40
2023-09-08T06:56:58.364Z,18.50
2023-09-08T06:59:26.528Z,18.60
2023-09-08T07:01:54.749Z,18.70
2023-09-08T07:04:23.118Z,18.90
2023-09-08T07:06:52.886Z,19.00
2023-09-08T07:09:21.046Z,19.20
2023-09-08T07:11:49.110Z,19.50
2023-09-08T07:14:18.537Z,19.70
2023-09-08T07:16:46.721Z,20.10
2023-09-08T07:19:14.855Z,20.70
2023-09-08T07:21:42.933Z,21.50
2023-09-08T07:24:11.185Z,22.40
2023-09-08T07:26:39.317Z,23.80
2023-09-08T07:29:07.390Z,24.90
2023-09-08T07:31:36.819Z,26.10
2023-09-08T07:34:05.016Z,26.80
2023-09-08T07:36:33.133Z,27.00
2023-09-08T07:39:01.349Z,27.30
2023-09-08T07:41:29.451Z,27.60
2023-09-08T07:43:57.693Z,27.90
2023-09-08T07:46:25.992Z,27.70
2023-09-08T07:48:55.827Z,27.60
2023-09-08T07:51:23.943Z,28.30
2023-09-08T07:53:52.225Z,28.60
2023-09-08T07:56:20.357Z,28.50
2023-09-08T07:58:48.483Z,28.60
2023-09-08T08:01:17.179Z,29.00
2023-09-08T08:03:45.295Z,29.10
2023-09-08T08:06:14.879Z,29.00
2023-09-08T08:08:42.981Z,29.80
2023-09-08T08:11:12.615Z,29.60
2023-09-08T08:13:40.748Z,30.10
2023-09-08T08:16:09.365Z,30.60
2023-09-08T08:18:37.855Z,30.50
2023-09-08T08:21:08.960Z,30.40
2023-09-08T08:23:40.091Z,30.30
2023-09-08T08:26:08.985Z,30.60
2023-09-08T08:28:37.479Z,31.00
2023-09-08T08:31:06.023Z,31.30
2023-09-08T08:33:34.461Z,31.50
2023-09-08T08:36:02.681Z,31.40
2023-09-08T08:38:30.933Z,31.50
2023-09-08T08:41:06.385Z,31.80
2023-09-08T08:43:35.027Z,31.70
2023-09-08T08:46:05.344Z,31.70
2023-09-08T08:48:34.748Z,31.60
2023-09-08T08:51:04.804Z,32.30
2023-09-08T08:53:33.818Z,32.20
2023-09-08T08:56:02.417Z,31.60
2023-09-08T08:58:31.893Z,31.80
2023-09-08T09:01:01.498Z,32.10
2023-09-08T09:03:30.014Z,32.80
2023-09-08T09:06:00.225Z,32.80
2023-09-08T09:08:29.966Z,33.10
2023-09-08T09:10:58.077Z,33.00
2023-09-08T09:13:26.343Z,32.50
2023-09-08T09:16:01.048Z,33.00
2023-09-08T09:18:31.505Z,32.90
2023-09-08T09:21:01.753Z,33.10
2023-09-08T09:23:31.169Z,33.10
2023-09-08T09:26:00.003Z,32.30
2023-09-08T09:28:31.146Z,32.10
2023-09-08T09:31:02.140Z,32.80
2023-09-08T09:33:32.144Z,33.20
2023-09-08T09:36:00.462Z,33.10
2023-09-08T09:38:29.537Z,33.60
2023-09-08T09:40:57.830Z,34.40
2023-09-08T09:43:25.977Z,33.30
2023-09-08T09:45:55.566Z,32.00
2023-09-08T09:48:25.959Z,32.90
2023-09-08T09:50:54.787Z,33.90
2023-09-08T09:53:23.418Z,32.90
2023-09-08T09:55:51.903Z,33.80
2023-09-08T09:58:23.070Z,33.80
2023-09-08T10:00:53.224Z,34.30
2023-09-08T10:03:22.149Z,34.30
2023-09-08T10:05:52.045Z,34.10
2023-09-08T10:08:20.215Z,34.00
2023-09-08T10:10:51.379Z,33.70
2023-09-08T10:13:25.810Z,33.90
2023-09-08T10:15:56.847Z,33.90
2023-09-08T10:18:26.563Z,33.90
2023-09-08T10:20:58.614Z,34.50
2023-09-08T10:23:36.255Z,33.90
2023-09-08T10:26:07.994Z,33.10
2023-09-08T10:28:38.211Z,33.40
2023-09-08T10:31:07.755Z,33.70
2023-09-08T10:33:37.978Z,33.60
2023-09-08T10:36:08.682Z,33.20
2023-09-08T10:38:37.511Z,33.40
2023-09-08T10:41:30.055Z,32.80
2023-09-08T10:44:00.556Z,32.20
2023-09-08T10:46:30.860Z,33.20
2023-09-08T10:49:04.603Z,33.80
2023-09-08T10:51:34.501Z,33.50
2023-09-08T10:54:03.225Z,32.90
2023-09-08T10:56:50.008Z,32.60
2023-09-08T10:59:18.309Z,32.20
2023-09-08T11:01:47.328Z,31.80
2023-09-08T11:04:20.309Z,31.40
2023-09-08T11:06:51.490Z,31.30
2023-09-08T11:09:19.578Z,30.90
2023-09-08T11:11:47.754Z,30.80
2023-09-08T11:14:16.732Z,30.70
2023-09-08T11:16:45.378Z,30.40
2023-09-08T11:19:13.739Z,30.30
2023-09-08T11:21:42.627Z,30.30
2023-09-08T11:24:15.963Z,30.60
2023-09-08T11:26:47.529Z,31.00
2023-09-08T11:29:15.851Z,31.40
2023-09-08T11:31:45.450Z,31.40
2023-09-08T11:34:15.810Z,31.10
2023-09-08T11:36:43.971Z,31.40
2023-09-08T11:39:13.421Z,32.00
2023-09-08T11:41:41.870Z,32.70
2023-09-08T11:44:10.087Z,33.10
2023-09-08T11:46:38.368Z,33.30
2023-09-08T11:49:06.814Z,33.60
2023-09-08T11:51:34.978Z,34.20
2023-09-08T11:54:03.637Z,33.10
2023-09-08T11:56:33.327Z,32.90
2023-09-08T11:59:02.115Z,33.50
2023-09-08T12:01:51.657Z,33.50
2023-09-08T12:04:21.424Z,33.50
2023-09-08T12:06:50.813Z,34.20
2023-09-08T12:09:19.342Z,34.90
2023-09-08T12:11:49.151Z,34.90
2023-09-08T12:14:17.882Z,34.20
2023-09-08T12:16:46.245Z,34.10
2023-09-08T12:19:32.397Z,33.90
2023-09-08T12:22:03.830Z,34.40
2023-09-08T12:25:00.117Z,34.70
2023-09-08T12:27:29.770Z,34.40
2023-09-08T12:29:58.520Z,34.60
2023-09-08T12:32:27.580Z,34.50
2023-09-08T12:34:55.752Z,34.80
2023-09-08T12:37:24.102Z,34.20
2023-09-08T12:39:52.636Z,33.90
2023-09-08T12:42:21.606Z,33.60
2023-09-08T12:44:51.197Z,33.80
2023-09-08T12:47:19.490Z,33.90
2023-09-08T12:49:47.741Z,33.80
2023-09-08T12:52:15.796Z,33.70
2023-09-08T12:54:43.853Z,34.50
2023-09-08T12:57:12.008Z,34.40
2023-09-08T12:59:40.051Z,34.30
2023-09-08T13:02:09.459Z,33.70
2023-09-08T13:04:37.524Z,33.50
2023-09-08T13:07:06.024Z,33.80
2023-09-08T13:09:34.193Z,34.00
2023-09-08T13:12:02.312Z,34.30
2023-09-08T13:14:30.356Z,34.10
2023-09-08T13:16:58.488Z,34.20
2023-09-08T13:19:27.929Z,33.70
2023-09-08T13:21:56.045Z,33.50
2023-09-08T13:24:24.093Z,33.60
2023-09-08T13:26:52.147Z,34.30
2023-09-08T13:29:20.745Z,34.70
2023-09-08T13:31:49.100Z,34.70
2023-09-08T13:34:17.205Z,34.40
2023-09-08T13:36:46.828Z,34.00
2023-09-08T13:39:15.028Z,34.00
2023-09-08T13:41:51.120Z,33.60
2023-09-08T13:44:20.243Z,34.00
2023-09-08T13:46:49.125Z,34.30
2023-09-08T13:49:18.228Z,34.40
2023-09-08T13:51:50.079Z,34.80
2023-09-08T13:54:20.607Z,35.10
2023-09-08T13:57:01.206Z,34.20
2023-09-08T13:59:35.261Z,33.90
2023-09-08T14:02:23.143Z,33.50
2023-09-08T14:04:55.659Z,33.60
2023-09-08T14:07:27.815Z,33.60
2023-09-08T14:10:06.182Z,33.70
2023-09-08T14:12:44.186Z,33.70
2023-09-08T14:15:16.444Z,33.90
2023-09-08T14:17:44.650Z,34.00
2023-09-08T14:20:13.608Z,34.30
2023-09-08T14:22:43.241Z,34.40
2023-09-08T14:25:11.450Z,34.40
2023-09-08T14:27:39.594Z,34.30
2023-09-08T14:30:09.104Z,34.40
2023-09-08T14:32:37.209Z,34.30
2023-09-08T14:35:06.193Z,34.20
2023-09-08T14:37:35.123Z,34.40
2023-09-08T14:40:04.980Z,34.40
2023-09-08T14:42:33.215Z,34.10
2023-09-08T14:45:01.283Z,33.40
2023-09-08T14:47:29.416Z,33.00
2023-09-08T14:49:58.414Z,32.90
2023-09-08T14:52:26.501Z,33.20
2023-09-08T14:54:54.671Z,33.50
2023-09-08T14:57:24.187Z,33.70
2023-09-08T14:59:55.338Z,33.50
2023-09-08T15:02:23.684Z,33.20
2023-09-08T15:04:51.795Z,32.70
2023-09-08T15:07:19.857Z,32.10
2023-09-08T15:09:47.937Z,31.70
2023-09-08T15:12:16.041Z,31.40
2023-09-08T15:14:45.437Z,31.10
2023-09-08T15:17:13.991Z,30.70
2023-09-08T15:19:42.188Z,30.60
2023-09-08T15:22:10.287Z,30.50
2023-09-08T15:24:38.291Z,30.30
2023-09-08T15:27:06.735Z,30.00
2023-09-08T15:29:34.907Z,30.00
2023-09-08T15:32:04.791Z,30.10
2023-09-08T15:34:32.977Z,30.00
2023-09-08T15:37:01.480Z,29.90
2023-09-08T15:39:29.596Z,29.90
2023-09-08T15:41:57.728Z,29.80
2023-09-08T15:44:25.823Z,29.80
2023-09-08T15:46:53.896Z,29.80
2023-09-08T15:49:23.533Z,30.10
2023-09-08T15:51:57.230Z,30.70
2023-09-08T15:54:32.820Z,31.20
2023-09-08T15:57:00.951Z,31.50
2023-09-08T15:59:29.365Z,31.80
2023-09-08T16:01:57.512Z,32.20
2023-09-08T16:04:27.693Z,32.20
2023-09-08T16:06:55.855Z,32.40
2023-09-08T16:09:24.008Z,32.30
2023-09-08T16:11:52.283Z,32.50
2023-09-08T16:14:20.340Z,32.60
2023-09-08T16:16:48.446Z,32.20
2023-09-08T16:19:17.745Z,32.20
2023-09-08T16:21:47.135Z,32.20
2023-09-08T16:24:15.259Z,32.30
2023-09-08T16:26:43.434Z,32.10
2023-09-08T16:29:11.573Z,32.10
2023-09-08T16:31:39.694Z,32.20
2023-09-08T16:34:07.748Z,32.00
2023-09-08T16:36:35.832Z,31.60
2023-09-08T16:39:05.752Z,31.50
2023-09-08T16:41:33.858Z,31.30
2023-09-08T16:44:01.908Z,31.20
2023-09-08T16:46:29.950Z,31.00
2023-09-08T16:48:58.038Z,30.40
2023-09-08T16:51:29.078Z,29.90
2023-09-08T16:53:59.562Z,29.40
2023-09-08T16:56:30.027Z,28.90
2023-09-08T16:58:58.117Z,28.50
2023-09-08T17:01:26.378Z,28.30
2023-09-08T17:03:55.203Z,28.10
2023-09-08T17:06:23.680Z,27.90
2023-09-08T17:08:51.826Z,27.70
2023-09-08T17:11:19.878Z,27.70
2023-09-08T17:13:49.291Z,27.60
2023-09-08T17:16:17.663Z,27.50
2023-09-08T17:18:45.931Z,27.40
2023-09-08T17:21:14.062Z,27.30
2023-09-08T17:23:42.201Z,27.10
2023-09-08T17:26:10.943Z,27.00
2023-09-08T17:28:39.070Z,26.90
2023-09-08T17:31:08.514Z,26.70
2023-09-08T17:33:36.982Z,26.60
2023-09-08T17:36:05.744Z,26.50
2023-09-08T17:38:34.364Z,26.40
2023-09-08T17:41:02.842Z,26.30
2023-09-08T17:43:31.255Z,26.20
2023-09-08T17:46:04.660Z,26.00
2023-09-08T17:48:34.641Z,26.00
2023-09-08T17:51:02.803Z,25.90
2023-09-08T17:53:36.428Z,25.80
2023-09-08T17:56:05.469Z,25.50
2023-09-08T17:58:33.852Z,25.30
2023-09-08T18:01:02.017Z,25.00
2023-09-08T18:03:30.310Z,24.70
2023-09-08T18:05:59.851Z,24.50
2023-09-08T18:08:27.904Z,24.40
2023-09-08T18:11:01.601Z,24.30
2023-09-08T18:13:29.811Z,24.20
2023-09-08T18:15:59.770Z,24.20
2023-09-08T18:18:28.333Z,24.10
2023-09-08T18:20:56.565Z,24.00
2023-09-08T18:23:26.397Z,23.80
2023-09-08T18:25:56.435Z,23.70
2023-09-08T18:28:25.103Z,23.50
2023-09-08T18:30:53.891Z,23.50
2023-09-08T18:33:22.074Z,23.50
2023-09-08T18:35:50.592Z,23.50
2023-09-08T18:38:18.766Z,23.50
2023-09-08T18:40:49.134Z,23.40
2023-09-08T18:43:19.331Z,23.30
2023-09-08T18:45:47.934Z,23.10
2023-09-08T18:48:16.108Z,23.10
2023-09-08T18:50:44.946Z,23.00
2023-09-08T18:53:13.920Z,23.00
2023-09-08T18:55:42.054Z,22.90
2023-09-08T18:58:11.583Z,22.80
2023-09-08T19:00:49.937Z,22.80
2023-09-08T19:03:19.914Z,22.90
2023-09-08T19:05:51.616Z,22.90
2023-09-08T19:08:20.055Z,22.90
2023-09-08T19:10:48.278Z,22.90
2023-09-08T19:13:17.703Z,22.90
2023-09-08T19:15:48.804Z,22.90
2023-09-08T19:18:19.667Z,22.70
2023-09-08T19:20:48.409Z,22.50
2023-09-08T19:23:16.662Z,22.40
2023-09-08T19:25:44.811Z,22.50
2023-09-08T19:28:13.604Z,22.30
2023-09-08T19:30:48.946Z,22.30
2023-09-08T19:33:17.443Z,22.40
2023-09-08T19:35:45.945Z,22.50
2023-09-08T19:38:14.065Z,22.30
2023-09-08T19:40:42.209Z,22.30
2023-09-08T19:43:10.353Z,22.10
2023-09-08T19:45:38.585Z,22.00
2023-09-08T19:48:11.327Z,22.00
2023-09-08T19:50:44.626Z,22.00
2023-09-08T19:53:17.185Z,21.90
2023-09-08T19:55:47.242Z,21.80
2023-09-08T19:58:16.087Z,21.80
2023-09-08T20:00:44.662Z,21.80
2023-09-08T20:03:14.210Z,21.70
2023-09-08T20:05:44.269Z,21.70
2023-09-08T20:08:12.557Z,21.70
2023-09-08T20:10:40.889Z,21.70
2023-09-08T20:13:09.512Z,21.60
2023-09-08T20:15:37.599Z,21.50
2023-09-08T20:18:06.129Z,21.40
2023-09-08T20:20:35.895Z,21.40
2023-09-08T20:23:04.506Z,21.40
2023-09-08T20:25:32.646Z,21.30
2023-09-08T20:28:00.686Z,21.30
2023-09-08T20:30:29.519Z,21.20
2023-09-08T20:32:57.690Z,21.20
2023-09-08T20:35:25.921Z,21.20
2023-09-08T20:37:55.351Z,21.00
2023-09-08T20:40:23.661Z,21.00
2023-09-08T20:42:51.897Z,21.10
2023-09-08T20:45:20.036Z,21.10
2023-09-08T20:47:49.661Z,21.00
2023-09-08T20:50:18.295Z,20.90
2023-09-08T20:52:46.453Z,20.70
2023-09-08T20:55:15.876Z,20.60
2023-09-08T20:57:43.911Z,20.50
2023-09-08T21:00:13.641Z,20.40
2023-09-08T21:02:41.960Z,20.40
2023-09-08T21:05:10.536Z,20.40
2023-09-08T21:07:38.805Z,20.30
2023-09-08T21:10:07.802Z,20.40
2023-09-08T21:12:37.318Z,20.60
2023-09-08T21:15:06.637Z,20.60
2023-09-08T21:17:34.780Z,20.60
2023-09-08T21:20:03.470Z,20.40
2023-09-08T21:22:36.935Z,20.50
2023-09-08T21:25:05.681Z,20.50
2023-09-08T21:27:34.069Z,20.30
2023-09-08T21:30:04.112Z,20.30
2023-09-08T21:32:32.536Z,20.20
2023-09-08T21:35:00.659Z,20.10
2023-09-08T21:37:29.003Z,20.10
2023-09-08T21:39:57.156Z,20.10
2023-09-08T21:42:25.342Z,20.00
2023-09-08T21:44:53.915Z,20.00
2023-09-08T21:47:23.867Z,19.90
2023-09-08T21:49:52.459Z,19.90
2023-09-08T21:52:35.459Z,19.90
2023-09-08T21:55:06.745Z,19.80
2023-09-08T21:57:34.893Z,19.70
2023-09-08T22:00:03.057Z,19.70
2023-09-08T22:02:33.948Z,19.80
2023-09-08T22:05:02.365Z,19.70
2023-09-08T22:07:30.550Z,19.70
2023-09-08T22:09:58.779Z,19.70
2023-09-08T22:12:26.944Z,19.70
2023-09-08T22:14:55.004Z,19.60
2023-09-08T22:17:23.146Z,19.60
2023-09-08T22:19:55.434Z,19.50
2023-09-08T22:22:26.511Z,19.50
2023-09-08T22:24:55.635Z,19.50
2023-09-08T22:27:23.872Z,19.50
2023-09-08T22:29:51.995Z,19.60
2023-09-08T22:32:20.146Z,19.60
2023-09-08T22:34:48.216Z,19.60
2023-09-08T22:37:17.826Z,19.60
2023-09-08T22:39:45.970Z,19.50
2023-09-08T22:42:14.137Z,19.50
2023-09-08T22:44:42.310Z,19.40
2023-09-08T22:47:11.513Z,19.40
2023-09-08T22:49:58.054Z,19.40
2023-09-08T22:52:27.703Z,19.30
2023-09-08T22:55:02.603Z,19.20
2023-09-08T22:57:40.994Z,19.20
2023-09-08T23:00:11.474Z,19.10
2023-09-08T23:02:39.752Z,19.10
2023-09-08T23:05:09.436Z,19.10
2023-09-08T23:07:38.945Z,19.10
2023-09-08T23:10:07.512Z,19.10
2023-09-08T23:12:35.569Z,19.10
2023-09-08T23:15:04.480Z,19.10
2023-09-08T23:17:34.329Z,19.10
2023-09-08T23:20:02.757Z,19.10
2023-09-08T23:22:32.313Z,19.10
2023-09-08T23:25:01.766Z,19.00
2023-09-08T23:27:29.897Z,19.00
2023-09-08T23:29:57.987Z,18.90
2023-09-08T23:32:26.152Z,18.90
2023-09-08T23:34:54.263Z,18.70
2023-09-08T23:37:22.385Z,18.60
2023-09-08T23:39:50.584Z,18.70
2023-09-08T23:42:20.455Z,18.70
2023-09-08T23:44:48.577Z,18.60
2023-09-08T23:47:16.625Z,18.60
2023-09-08T23:49:44.686Z,18.60
2023-09-08T23:52:12.791Z,18.60
2023-09-08T23:54:40.911Z,18.60
2023-09-08T23:57:09.576Z,18.60
2023-09-08T23:59:39.108Z,18.60
